sensor_id;sensor_type;location;lat;lon;timestamp;pressure;altitude;pressure_sealevel;temperature;humidity
71361;BME280;59166;48.908;1.870;2022-08-03T00:03:11;100369.44;;;21.56;71.54
71361;BME280;59166;48.908;1.870;2022-08-03T00:08:12;100374.41;;;21.41;72.35
71361;BME280;59166;48.908;1.870;2022-08-03T00:13:14;100369.78;;;21.25;73.01
71361;BME280;59166;48.908;1.870;2022-08-03T00:18:15;100379.63;;;21.26;72.96
71361;BME280;59166;48.908;1.870;2022-08-03T00:23:16;100380.03;;;21.07;74.21
71361;BME280;59166;48.908;1.870;2022-08-03T00:28:18;100368.84;;;21.12;73.65
71361;BME280;59166;48.908;1.870;2022-08-03T00:33:19;100368.53;;;21.05;73.79
71361;BME280;59166;48.908;1.870;2022-08-03T00:38:20;100370.81;;;21.03;74.46
71361;BME280;59166;48.908;1.870;2022-08-03T00:43:24;100358.88;;;20.99;73.57
71361;BME280;59166;48.908;1.870;2022-08-03T00:48:25;100351.50;;;20.91;74.55
71361;BME280;59166;48.908;1.870;2022-08-03T00:53:26;100345.84;;;20.87;74.43
71361;BME280;59166;48.908;1.870;2022-08-03T00:58:29;100337.59;;;20.87;74.65
71361;BME280;59166;48.908;1.870;2022-08-03T01:03:29;100333.88;;;20.83;74.66
71361;BME280;59166;48.908;1.870;2022-08-03T01:08:40;100335.34;;;20.81;74.53
71361;BME280;59166;48.908;1.870;2022-08-03T01:13:56;100330.81;;;20.76;75.01
71361;BME280;59166;48.908;1.870;2022-08-03T01:19:13;100332.78;;;20.67;75.20
71361;BME280;59166;48.908;1.870;2022-08-03T01:24:31;100330.34;;;20.66;75.13
71361;BME280;59166;48.908;1.870;2022-08-03T01:29:58;100325.63;;;20.75;74.46
71361;BME280;59166;48.908;1.870;2022-08-03T01:35:03;100323.84;;;20.79;74.58
71361;BME280;59166;48.908;1.870;2022-08-03T01:40:05;100316.13;;;20.72;74.61
71361;BME280;59166;48.908;1.870;2022-08-03T01:45:12;100309.34;;;20.61;74.97
71361;BME280;59166;48.908;1.870;2022-08-03T01:50:14;100305.19;;;20.55;75.31
71361;BME280;59166;48.908;1.870;2022-08-03T01:55:17;100299.06;;;20.49;75.52
71361;BME280;59166;48.908;1.870;2022-08-03T02:00:20;100302.94;;;20.48;75.14
71361;BME280;59166;48.908;1.870;2022-08-03T02:05:22;100295.84;;;20.39;75.50
71361;BME280;59166;48.908;1.870;2022-08-03T02:10:25;100299.09;;;20.32;75.55
71361;BME280;59166;48.908;1.870;2022-08-03T02:15:29;100289.91;;;20.28;76.11
71361;BME280;59166;48.908;1.870;2022-08-03T02:20:32;100293.63;;;20.32;75.67
71361;BME280;59166;48.908;1.870;2022-08-03T02:25:36;100291.84;;;20.36;75.44
71361;BME280;59166;48.908;1.870;2022-08-03T02:30:40;100296.16;;;20.46;74.43
71361;BME280;59166;48.908;1.870;2022-08-03T02:35:42;100287.94;;;20.46;74.65
71361;BME280;59166;48.908;1.870;2022-08-03T02:40:44;100293.94;;;20.39;74.72
71361;BME280;59166;48.908;1.870;2022-08-03T02:45:48;100291.34;;;20.34;74.66
71361;BME280;59166;48.908;1.870;2022-08-03T02:50:52;100292.19;;;20.26;74.95
71361;BME280;59166;48.908;1.870;2022-08-03T02:55:54;100284.94;;;20.13;76.10
71361;BME280;59166;48.908;1.870;2022-08-03T03:00:57;100277.63;;;20.00;76.32
71361;BME280;59166;48.908;1.870;2022-08-03T03:05:58;100283.09;;;20.00;75.77
71361;BME280;59166;48.908;1.870;2022-08-03T03:11:00;100289.25;;;19.97;75.52
71361;BME280;59166;48.908;1.870;2022-08-03T03:16:03;100285.06;;;19.91;76.19
71361;BME280;59166;48.908;1.870;2022-08-03T03:21:07;100272.81;;;19.88;76.59
71361;BME280;59166;48.908;1.870;2022-08-03T03:26:09;100278.59;;;19.87;76.54
71361;BME280;59166;48.908;1.870;2022-08-03T03:31:13;100279.41;;;19.79;76.98
71361;BME280;59166;48.908;1.870;2022-08-03T03:36:14;100282.94;;;19.71;77.05
71361;BME280;59166;48.908;1.870;2022-08-03T03:41:15;100262.78;;;19.58;78.10
71361;BME280;59166;48.908;1.870;2022-08-03T03:46:17;100268.75;;;19.52;79.16
71361;BME280;59166;48.908;1.870;2022-08-03T03:51:18;100274.53;;;19.50;79.14
71361;BME280;59166;48.908;1.870;2022-08-03T03:56:18;100274.38;;;19.46;79.44
71361;BME280;59166;48.908;1.870;2022-08-03T04:01:21;100267.09;;;19.33;78.67
71361;BME280;59166;48.908;1.870;2022-08-03T04:06:21;100272.09;;;19.31;79.22
71361;BME280;59166;48.908;1.870;2022-08-03T04:11:26;100277.41;;;19.28;79.96
71361;BME280;59166;48.908;1.870;2022-08-03T04:16:31;100271.53;;;19.12;81.30
71361;BME280;59166;48.908;1.870;2022-08-03T04:21:34;100268.81;;;19.12;80.95
71361;BME280;59166;48.908;1.870;2022-08-03T04:26:39;100261.19;;;19.09;81.47
71361;BME280;59166;48.908;1.870;2022-08-03T04:31:42;100259.81;;;19.12;80.86
71361;BME280;59166;48.908;1.870;2022-08-03T04:36:48;100262.72;;;19.15;80.18
71361;BME280;59166;48.908;1.870;2022-08-03T04:41:52;100252.06;;;19.14;80.08
71361;BME280;59166;48.908;1.870;2022-08-03T04:46:55;100261.72;;;19.11;79.59
71361;BME280;59166;48.908;1.870;2022-08-03T04:51:57;100265.47;;;19.15;78.99
71361;BME280;59166;48.908;1.870;2022-08-03T04:56:58;100265.63;;;19.19;78.90
71361;BME280;59166;48.908;1.870;2022-08-03T05:02:00;100271.41;;;19.17;78.78
71361;BME280;59166;48.908;1.870;2022-08-03T05:07:00;100278.97;;;19.12;79.38
71361;BME280;59166;48.908;1.870;2022-08-03T05:12:01;100280.16;;;18.97;80.99
71361;BME280;59166;48.908;1.870;2022-08-03T05:17:03;100281.22;;;18.79;82.41
71361;BME280;59166;48.908;1.870;2022-08-03T05:22:04;100287.94;;;18.73;82.95
71361;BME280;59166;48.908;1.870;2022-08-03T05:27:05;100289.38;;;18.70;83.46
71361;BME280;59166;48.908;1.870;2022-08-03T05:32:07;100284.38;;;18.64;83.85
71361;BME280;59166;48.908;1.870;2022-08-03T05:37:07;100292.59;;;18.64;83.92
71361;BME280;59166;48.908;1.870;2022-08-03T05:42:08;100295.69;;;18.71;83.50
71361;BME280;59166;48.908;1.870;2022-08-03T05:47:10;100301.53;;;18.86;82.31
71361;BME280;59166;48.908;1.870;2022-08-03T05:52:11;100301.75;;;18.98;83.22
71361;BME280;59166;48.908;1.870;2022-08-03T05:57:11;100309.66;;;19.00;82.86
71361;BME280;59166;48.908;1.870;2022-08-03T06:02:13;100311.94;;;19.07;82.54
71361;BME280;59166;48.908;1.870;2022-08-03T06:07:14;100317.97;;;19.17;82.75
71361;BME280;59166;48.908;1.870;2022-08-03T06:12:14;100322.81;;;19.20;82.33
71361;BME280;59166;48.908;1.870;2022-08-03T06:17:16;100315.91;;;19.31;81.57
71361;BME280;59166;48.908;1.870;2022-08-03T06:22:17;100310.16;;;19.41;82.09
71361;BME280;59166;48.908;1.870;2022-08-03T06:27:18;100308.09;;;19.64;82.07
71361;BME280;59166;48.908;1.870;2022-08-03T06:32:20;100309.75;;;19.82;81.13
71361;BME280;59166;48.908;1.870;2022-08-03T06:37:20;100309.59;;;19.96;80.94
71361;BME280;59166;48.908;1.870;2022-08-03T06:42:21;100310.41;;;20.14;80.38
71361;BME280;59166;48.908;1.870;2022-08-03T06:47:23;100304.56;;;20.41;80.18
71361;BME280;59166;48.908;1.870;2022-08-03T06:52:24;100310.97;;;20.62;79.19
71361;BME280;59166;48.908;1.870;2022-08-03T06:57:24;100315.47;;;20.84;78.45
71361;BME280;59166;48.908;1.870;2022-08-03T07:02:27;100311.34;;;21.07;77.59
71361;BME280;59166;48.908;1.870;2022-08-03T07:07:27;100315.59;;;21.34;76.58
71361;BME280;59166;48.908;1.870;2022-08-03T07:12:28;100313.47;;;21.60;76.10
71361;BME280;59166;48.908;1.870;2022-08-03T07:17:34;100310.84;;;21.93;75.80
71361;BME280;59166;48.908;1.870;2022-08-03T07:22:35;100318.97;;;22.10;75.43
71361;BME280;59166;48.908;1.870;2022-08-03T07:27:36;100311.63;;;22.35;74.37
71361;BME280;59166;48.908;1.870;2022-08-03T07:32:38;100317.25;;;22.59;72.12
71361;BME280;59166;48.908;1.870;2022-08-03T07:37:39;100315.38;;;22.96;71.23
71361;BME280;59166;48.908;1.870;2022-08-03T07:42:39;100312.66;;;23.44;65.32
71361;BME280;59166;48.908;1.870;2022-08-03T07:47:41;100314.78;;;23.87;68.88
71361;BME280;59166;48.908;1.870;2022-08-03T07:52:42;100321.63;;;24.18;62.90
71361;BME280;59166;48.908;1.870;2022-08-03T07:57:43;100321.53;;;24.58;61.37
71361;BME280;59166;48.908;1.870;2022-08-03T08:02:45;100319.50;;;24.82;65.97
71361;BME280;59166;48.908;1.870;2022-08-03T08:07:46;100320.91;;;25.08;60.20
71361;BME280;59166;48.908;1.870;2022-08-03T08:12:46;100316.28;;;25.43;57.66
71361;BME280;59166;48.908;1.870;2022-08-03T08:17:50;100309.47;;;25.91;54.17
71361;BME280;59166;48.908;1.870;2022-08-03T08:22:51;100311.03;;;26.27;57.01
71361;BME280;59166;48.908;1.870;2022-08-03T08:27:52;100306.72;;;26.48;56.43
71361;BME280;59166;48.908;1.870;2022-08-03T08:32:54;100308.94;;;26.81;53.96
71361;BME280;59166;48.908;1.870;2022-08-03T08:37:55;100303.75;;;27.25;52.44
71361;BME280;59166;48.908;1.870;2022-08-03T08:42:55;100312.91;;;27.52;50.14
71361;BME280;59166;48.908;1.870;2022-08-03T08:47:59;100302.28;;;27.84;48.04
71361;BME280;59166;48.908;1.870;2022-08-03T08:53:02;100302.38;;;28.21;48.65
71361;BME280;59166;48.908;1.870;2022-08-03T08:58:05;100300.84;;;28.64;46.18
71361;BME280;59166;48.908;1.870;2022-08-03T09:03:07;100299.22;;;28.99;43.67
71361;BME280;59166;48.908;1.870;2022-08-03T09:08:08;100301.28;;;29.57;42.67
71361;BME280;59166;48.908;1.870;2022-08-03T09:13:09;100306.47;;;30.27;41.05
71361;BME280;59166;48.908;1.870;2022-08-03T09:18:11;100297.81;;;30.75;40.06
71361;BME280;59166;48.908;1.870;2022-08-03T09:23:12;100294.66;;;30.90;36.30
71361;BME280;59166;48.908;1.870;2022-08-03T09:28:14;100288.69;;;31.48;36.55
71361;BME280;59166;48.908;1.870;2022-08-03T09:33:16;100291.38;;;31.91;34.63
71361;BME280;59166;48.908;1.870;2022-08-03T09:38:20;100291.31;;;32.09;34.32
71361;BME280;59166;48.908;1.870;2022-08-03T09:43:21;100283.31;;;32.14;34.69
71361;BME280;59166;48.908;1.870;2022-08-03T09:48:25;100282.47;;;32.24;34.91
71361;BME280;59166;48.908;1.870;2022-08-03T09:53:26;100280.78;;;32.41;34.04
71361;BME280;59166;48.908;1.870;2022-08-03T09:58:29;100277.56;;;32.49;34.19
71361;BME280;59166;48.908;1.870;2022-08-03T10:03:32;100275.50;;;32.57;33.60
71361;BME280;59166;48.908;1.870;2022-08-03T10:08:34;100268.34;;;32.52;34.93
71361;BME280;59166;48.908;1.870;2022-08-03T10:13:36;100259.94;;;32.52;34.46
71361;BME280;59166;48.908;1.870;2022-08-03T10:18:39;100260.75;;;32.53;35.56
71361;BME280;59166;48.908;1.870;2022-08-03T10:23:40;100259.47;;;32.61;34.60
71361;BME280;59166;48.908;1.870;2022-08-03T10:28:46;100254.25;;;32.74;33.78
71361;BME280;59166;48.908;1.870;2022-08-03T10:33:50;100247.53;;;32.61;32.85
71361;BME280;59166;48.908;1.870;2022-08-03T10:38:55;100247.69;;;32.94;32.87
71361;BME280;59166;48.908;1.870;2022-08-03T10:44:02;100247.72;;;32.91;33.17
71361;BME280;59166;48.908;1.870;2022-08-03T10:49:04;100237.22;;;32.98;32.22
71361;BME280;59166;48.908;1.870;2022-08-03T10:54:06;100224.59;;;32.80;31.41
71361;BME280;59166;48.908;1.870;2022-08-03T10:59:06;100225.66;;;32.96;32.20
71361;BME280;59166;48.908;1.870;2022-08-03T11:04:16;100218.19;;;33.27;32.39
71361;BME280;59166;48.908;1.870;2022-08-03T11:09:17;100223.72;;;33.72;30.06
71361;BME280;59166;48.908;1.870;2022-08-03T11:14:19;100226.91;;;33.74;30.26
71361;BME280;59166;48.908;1.870;2022-08-03T11:19:22;100206.38;;;33.80;30.44
71361;BME280;59166;48.908;1.870;2022-08-03T11:24:56;100205.84;;;33.92;30.51
71361;BME280;59166;48.908;1.870;2022-08-03T11:30:00;100198.72;;;34.15;29.41
71361;BME280;59166;48.908;1.870;2022-08-03T11:35:09;100188.31;;;34.15;29.60
71361;BME280;59166;48.908;1.870;2022-08-03T11:40:34;100195.81;;;34.75;28.65
71361;BME280;59166;48.908;1.870;2022-08-03T11:45:35;100183.38;;;34.99;28.95
71361;BME280;59166;48.908;1.870;2022-08-03T11:50:38;100182.41;;;34.86;28.01
71361;BME280;59166;48.908;1.870;2022-08-03T11:55:39;100181.53;;;34.89;28.95
71361;BME280;59166;48.908;1.870;2022-08-03T12:00:40;100184.31;;;35.13;27.31
71361;BME280;59166;48.908;1.870;2022-08-03T12:05:44;100183.56;;;35.32;27.15
71361;BME280;59166;48.908;1.870;2022-08-03T12:10:47;100178.69;;;35.36;27.89
71361;BME280;59166;48.908;1.870;2022-08-03T12:15:52;100168.88;;;35.01;26.40
71361;BME280;59166;48.908;1.870;2022-08-03T12:21:04;100165.78;;;35.38;28.10
71361;BME280;59166;48.908;1.870;2022-08-03T12:26:07;100161.41;;;35.37;26.87
71361;BME280;59166;48.908;1.870;2022-08-03T12:31:08;100161.34;;;35.41;27.30
71361;BME280;59166;48.908;1.870;2022-08-03T12:36:10;100169.94;;;35.70;26.33
71361;BME280;59166;48.908;1.870;2022-08-03T12:41:10;100172.84;;;35.66;27.50
71361;BME280;59166;48.908;1.870;2022-08-03T12:46:13;100170.72;;;35.74;26.74
71361;BME280;59166;48.908;1.870;2022-08-03T12:51:15;100165.28;;;35.83;27.41
71361;BME280;59166;48.908;1.870;2022-08-03T12:56:16;100164.06;;;36.36;26.69
71361;BME280;59166;48.908;1.870;2022-08-03T13:01:16;100153.28;;;36.34;25.95
71361;BME280;59166;48.908;1.870;2022-08-03T13:06:20;100150.63;;;36.43;25.84
71361;BME280;59166;48.908;1.870;2022-08-03T13:11:22;100142.47;;;36.49;26.07
71361;BME280;59166;48.908;1.870;2022-08-03T13:16:23;100136.13;;;36.77;24.74
71361;BME280;59166;48.908;1.870;2022-08-03T13:21:25;100135.84;;;36.88;23.57
71361;BME280;59166;48.908;1.870;2022-08-03T13:26:26;100136.25;;;37.03;23.92
71361;BME280;59166;48.908;1.870;2022-08-03T13:31:27;100130.91;;;36.92;24.30
71361;BME280;59166;48.908;1.870;2022-08-03T13:36:29;100124.38;;;36.95;23.48
71361;BME280;59166;48.908;1.870;2022-08-03T13:41:30;100119.22;;;36.77;24.37
71361;BME280;59166;48.908;1.870;2022-08-03T13:46:30;100117.91;;;36.66;24.06
71361;BME280;59166;48.908;1.870;2022-08-03T13:51:33;100109.75;;;36.39;24.55
71361;BME280;59166;48.908;1.870;2022-08-03T13:56:34;100100.50;;;36.38;23.49
71361;BME280;59166;48.908;1.870;2022-08-03T14:01:34;100103.97;;;36.91;24.97
71361;BME280;59166;48.908;1.870;2022-08-03T14:06:37;100095.75;;;36.68;23.15
71361;BME280;59166;48.908;1.870;2022-08-03T14:11:37;100091.84;;;36.13;25.51
71361;BME280;59166;48.908;1.870;2022-08-03T14:16:39;100090.78;;;36.88;23.51
71361;BME280;59166;48.908;1.870;2022-08-03T14:21:41;100086.00;;;37.14;23.28
71361;BME280;59166;48.908;1.870;2022-08-03T14:26:41;100081.69;;;37.25;23.28
71361;BME280;59166;48.908;1.870;2022-08-03T14:31:42;100071.00;;;37.33;22.81
71361;BME280;59166;48.908;1.870;2022-08-03T14:36:44;100065.06;;;37.43;23.69
71361;BME280;59166;48.908;1.870;2022-08-03T14:41:45;100062.81;;;36.81;23.59
71361;BME280;59166;48.908;1.870;2022-08-03T14:46:45;100053.28;;;36.46;24.21
71361;BME280;59166;48.908;1.870;2022-08-03T14:51:47;100048.25;;;36.54;23.54
71361;BME280;59166;48.908;1.870;2022-08-03T14:56:48;100042.84;;;36.75;23.44
71361;BME280;59166;48.908;1.870;2022-08-03T15:01:49;100033.09;;;37.21;21.51
71361;BME280;59166;48.908;1.870;2022-08-03T15:06:51;100024.81;;;37.02;21.98
71361;BME280;59166;48.908;1.870;2022-08-03T15:11:51;100016.06;;;35.58;24.89
71361;BME280;59166;48.908;1.870;2022-08-03T15:16:52;100010.47;;;35.90;25.96
71361;BME280;59166;48.908;1.870;2022-08-03T15:21:54;100009.97;;;35.95;24.31
71361;BME280;59166;48.908;1.870;2022-08-03T15:26:54;99994.06;;;36.49;22.70
71361;BME280;59166;48.908;1.870;2022-08-03T15:31:55;99994.72;;;37.11;21.81
71361;BME280;59166;48.908;1.870;2022-08-03T15:36:57;99990.41;;;37.35;21.82
71361;BME280;59166;48.908;1.870;2022-08-03T15:41:58;99983.63;;;36.79;22.93
71361;BME280;59166;48.908;1.870;2022-08-03T15:46:58;99979.75;;;37.02;22.25
71361;BME280;59166;48.908;1.870;2022-08-03T15:52:00;99979.06;;;37.64;21.65
71361;BME280;59166;48.908;1.870;2022-08-03T15:57:01;99968.75;;;37.32;20.71
71361;BME280;59166;48.908;1.870;2022-08-03T16:02:02;99965.16;;;37.32;21.56
71361;BME280;59166;48.908;1.870;2022-08-03T16:07:04;99964.72;;;37.33;22.48
71361;BME280;59166;48.908;1.870;2022-08-03T16:12:05;99966.38;;;37.81;21.64
71361;BME280;59166;48.908;1.870;2022-08-03T16:17:05;99963.91;;;37.58;21.31
71361;BME280;59166;48.908;1.870;2022-08-03T16:22:07;99948.81;;;37.65;21.28
71361;BME280;59166;48.908;1.870;2022-08-03T16:27:08;99949.44;;;37.94;20.27
71361;BME280;59166;48.908;1.870;2022-08-03T16:32:09;99946.75;;;37.90;20.58
71361;BME280;59166;48.908;1.870;2022-08-03T16:37:11;99948.78;;;37.90;20.71
71361;BME280;59166;48.908;1.870;2022-08-03T16:42:12;99950.03;;;37.76;20.50
71361;BME280;59166;48.908;1.870;2022-08-03T16:47:12;99936.91;;;37.95;20.81
71361;BME280;59166;48.908;1.870;2022-08-03T16:52:14;99935.97;;;37.64;20.63
71361;BME280;59166;48.908;1.870;2022-08-03T16:57:16;99941.34;;;37.83;21.31
71361;BME280;59166;48.908;1.870;2022-08-03T17:02:20;99938.63;;;37.55;20.71
71361;BME280;59166;48.908;1.870;2022-08-03T17:07:22;99930.91;;;37.33;21.31
71361;BME280;59166;48.908;1.870;2022-08-03T17:12:23;99919.28;;;37.31;21.25
71361;BME280;59166;48.908;1.870;2022-08-03T17:17:30;99922.09;;;37.31;20.56
71361;BME280;59166;48.908;1.870;2022-08-03T17:22:35;99915.50;;;36.84;21.65
71361;BME280;59166;48.908;1.870;2022-08-03T17:27:36;99918.38;;;37.22;21.07
71361;BME280;59166;48.908;1.870;2022-08-03T17:32:39;99912.41;;;37.32;21.09
71361;BME280;59166;48.908;1.870;2022-08-03T17:37:42;99915.13;;;37.23;20.94
71361;BME280;59166;48.908;1.870;2022-08-03T17:42:42;99915.97;;;36.95;20.97
71361;BME280;59166;48.908;1.870;2022-08-03T17:47:43;99918.09;;;36.05;21.63
71361;BME280;59166;48.908;1.870;2022-08-03T17:52:46;99913.34;;;35.21;25.61
71361;BME280;59166;48.908;1.870;2022-08-03T17:57:51;99906.38;;;35.09;23.71
71361;BME280;59166;48.908;1.870;2022-08-03T18:03:01;99920.22;;;35.00;24.40
71361;BME280;59166;48.908;1.870;2022-08-03T18:08:05;99909.31;;;34.66;26.77
71361;BME280;59166;48.908;1.870;2022-08-03T18:13:08;99913.75;;;34.24;26.39
71361;BME280;59166;48.908;1.870;2022-08-03T18:18:10;99920.97;;;33.79;30.25
71361;BME280;59166;48.908;1.870;2022-08-03T18:23:14;99911.66;;;33.05;30.17
71361;BME280;59166;48.908;1.870;2022-08-03T18:28:17;99915.63;;;32.43;31.81
71361;BME280;59166;48.908;1.870;2022-08-03T18:33:19;99916.00;;;32.05;31.63
71361;BME280;59166;48.908;1.870;2022-08-03T18:38:23;99921.41;;;31.85;31.75
71361;BME280;59166;48.908;1.870;2022-08-03T18:43:24;99916.28;;;31.76;30.41
71361;BME280;59166;48.908;1.870;2022-08-03T18:48:28;99914.34;;;31.66;29.82
71361;BME280;59166;48.908;1.870;2022-08-03T18:53:41;99914.44;;;31.56;31.89
71361;BME280;59166;48.908;1.870;2022-08-03T18:58:50;99908.53;;;31.43;30.30
71361;BME280;59166;48.908;1.870;2022-08-03T19:03:56;99924.75;;;31.04;33.78
71361;BME280;59166;48.908;1.870;2022-08-03T19:09:02;99917.84;;;30.25;34.62
71361;BME280;59166;48.908;1.870;2022-08-03T19:14:07;99928.25;;;29.89;37.23
71361;BME280;59166;48.908;1.870;2022-08-03T19:19:10;99933.00;;;29.64;39.98
71361;BME280;59166;48.908;1.870;2022-08-03T19:24:13;99936.19;;;29.44;41.21
71361;BME280;59166;48.908;1.870;2022-08-03T19:29:14;99940.94;;;29.40;42.47
71361;BME280;59166;48.908;1.870;2022-08-03T19:34:17;99948.06;;;29.27;44.38
71361;BME280;59166;48.908;1.870;2022-08-03T19:39:19;99957.16;;;29.17;44.95
71361;BME280;59166;48.908;1.870;2022-08-03T19:44:29;99969.84;;;29.00;46.06
71361;BME280;59166;48.908;1.870;2022-08-03T19:49:36;99971.72;;;28.82;46.84
71361;BME280;59166;48.908;1.870;2022-08-03T19:54:41;99989.16;;;28.72;47.92
71361;BME280;59166;48.908;1.870;2022-08-03T19:59:43;99977.16;;;28.58;48.30
71361;BME280;59166;48.908;1.870;2022-08-03T20:04:44;99987.03;;;28.48;48.86
71361;BME280;59166;48.908;1.870;2022-08-03T20:09:46;99984.94;;;28.31;49.69
71361;BME280;59166;48.908;1.870;2022-08-03T20:14:47;99988.06;;;28.22;49.51
71361;BME280;59166;48.908;1.870;2022-08-03T20:19:51;99987.56;;;28.10;50.52
71361;BME280;59166;48.908;1.870;2022-08-03T20:24:55;99991.03;;;27.99;50.78
71361;BME280;59166;48.908;1.870;2022-08-03T20:29:57;99997.25;;;27.86;51.32
71361;BME280;59166;48.908;1.870;2022-08-03T20:34:58;99990.81;;;27.75;51.69
71361;BME280;59166;48.908;1.870;2022-08-03T20:40:00;100008.59;;;27.67;52.04
71361;BME280;59166;48.908;1.870;2022-08-03T20:45:01;100005.25;;;27.50;52.22
71361;BME280;59166;48.908;1.870;2022-08-03T20:50:02;100016.69;;;27.45;52.54
71361;BME280;59166;48.908;1.870;2022-08-03T20:55:06;100018.13;;;27.32;52.93
71361;BME280;59166;48.908;1.870;2022-08-03T21:00:08;100011.28;;;27.23;53.47
71361;BME280;59166;48.908;1.870;2022-08-03T21:05:09;100017.81;;;27.08;53.54
71361;BME280;59166;48.908;1.870;2022-08-03T21:10:13;100013.69;;;26.94;54.55
71361;BME280;59166;48.908;1.870;2022-08-03T21:15:15;100027.09;;;26.89;53.93
71361;BME280;59166;48.908;1.870;2022-08-03T21:20:16;100020.66;;;26.81;54.18
71361;BME280;59166;48.908;1.870;2022-08-03T21:25:24;100026.31;;;26.62;54.84
71361;BME280;59166;48.908;1.870;2022-08-03T21:30:27;100034.03;;;26.49;55.19
71361;BME280;59166;48.908;1.870;2022-08-03T21:35:28;100034.34;;;26.44;55.43
71361;BME280;59166;48.908;1.870;2022-08-03T21:40:30;100031.84;;;26.36;55.28
71361;BME280;59166;48.908;1.870;2022-08-03T21:45:32;100031.25;;;26.23;55.72
71361;BME280;59166;48.908;1.870;2022-08-03T21:50:35;100024.50;;;26.21;55.68
71361;BME280;59166;48.908;1.870;2022-08-03T21:55:38;100025.84;;;26.08;56.33
71361;BME280;59166;48.908;1.870;2022-08-03T22:00:43;100019.72;;;25.98;56.88
71361;BME280;59166;48.908;1.870;2022-08-03T22:05:44;100025.16;;;25.91;57.18
71361;BME280;59166;48.908;1.870;2022-08-03T22:10:46;100033.78;;;25.86;57.34
71361;BME280;59166;48.908;1.870;2022-08-03T22:15:47;100029.94;;;25.72;58.00
71361;BME280;59166;48.908;1.870;2022-08-03T22:20:49;100030.47;;;25.58;58.55
71361;BME280;59166;48.908;1.870;2022-08-03T22:25:52;100024.47;;;25.52;58.42
71361;BME280;59166;48.908;1.870;2022-08-03T22:30:52;100032.63;;;25.45;58.70
71361;BME280;59166;48.908;1.870;2022-08-03T22:35:56;100020.44;;;25.31;59.15
71361;BME280;59166;48.908;1.870;2022-08-03T22:41:00;100019.31;;;25.13;59.89
71361;BME280;59166;48.908;1.870;2022-08-03T22:46:01;100028.47;;;24.97;60.25
71361;BME280;59166;48.908;1.870;2022-08-03T22:51:02;100024.31;;;24.88;60.30
71361;BME280;59166;48.908;1.870;2022-08-03T22:56:05;100025.28;;;24.76;60.56
71361;BME280;59166;48.908;1.870;2022-08-03T23:01:07;100028.03;;;24.76;60.18
71361;BME280;59166;48.908;1.870;2022-08-03T23:06:08;100032.69;;;24.72;60.12
71361;BME280;59166;48.908;1.870;2022-08-03T23:11:10;100037.63;;;24.67;60.26
71361;BME280;59166;48.908;1.870;2022-08-03T23:16:12;100036.13;;;24.69;59.83
71361;BME280;59166;48.908;1.870;2022-08-03T23:21:14;100031.25;;;24.63;59.89
71361;BME280;59166;48.908;1.870;2022-08-03T23:26:18;100052.72;;;24.53;60.22
71361;BME280;59166;48.908;1.870;2022-08-03T23:31:20;100048.47;;;24.40;60.93
71361;BME280;59166;48.908;1.870;2022-08-03T23:36:21;100057.59;;;24.25;61.24
71361;BME280;59166;48.908;1.870;2022-08-03T23:41:23;100049.84;;;24.15;61.76
71361;BME280;59166;48.908;1.870;2022-08-03T23:46:24;100042.81;;;24.02;62.11
71361;BME280;59166;48.908;1.870;2022-08-03T23:51:37;100044.56;;;23.94;62.08
71361;BME280;59166;48.908;1.870;2022-08-03T23:56:44;100053.47;;;23.88;62.57
